sensor_id;sensor_type;location;lat;lon;timestamp;P1;durP1;ratioP1;P2;durP2;ratioP2
22737;SDS011;11536;50.860;4.286;2023-06-22T00:00:46;4.47;;;1.90;;
22737;SDS011;11536;50.860;4.286;2023-06-22T00:03:12;6.28;;;2.08;;
22737;SDS011;11536;50.860;4.286;2023-06-22T00:05:37;5.82;;;2.30;;
22737;SDS011;11536;50.860;4.286;2023-06-22T00:08:03;6.43;;;2.35;;
22737;SDS011;11536;50.860;4.286;2023-06-22T00:10:32;5.68;;;2.38;;
22737;SDS011;11536;50.860;4.286;2023-06-22T00:12:57;5.05;;;2.22;;
22737;SDS011;11536;50.860;4.286;2023-06-22T00:15:23;5.97;;;2.72;;
22737;SDS011;11536;50.860;4.286;2023-06-22T00:17:49;5.95;;;2.35;;
22737;SDS011;11536;50.860;4.286;2023-06-22T00:20:15;5.47;;;2.30;;
22737;SDS011;11536;50.860;4.286;2023-06-22T00:22:41;5.72;;;2.55;;
22737;SDS011;11536;50.860;4.286;2023-06-22T00:25:08;6.47;;;2.28;;
22737;SDS011;11536;50.860;4.286;2023-06-22T00:27:34;6.95;;;1.90;;
22737;SDS011;11536;50.860;4.286;2023-06-22T00:30:00;6.32;;;2.30;;
22737;SDS011;11536;50.860;4.286;2023-06-22T00:32:25;7.60;;;2.13;;
22737;SDS011;11536;50.860;4.286;2023-06-22T00:34:51;5.75;;;2.13;;
22737;SDS011;11536;50.860;4.286;2023-06-22T00:37:17;5.68;;;1.80;;
22737;SDS011;11536;50.860;4.286;2023-06-22T00:39:43;5.00;;;2.28;;
22737;SDS011;11536;50.860;4.286;2023-06-22T00:42:09;4.13;;;1.70;;
22737;SDS011;11536;50.860;4.286;2023-06-22T00:44:35;5.10;;;1.98;;
22737;SDS011;11536;50.860;4.286;2023-06-22T00:47:01;4.50;;;1.60;;
22737;SDS011;11536;50.860;4.286;2023-06-22T00:49:27;4.40;;;1.77;;
22737;SDS011;11536;50.860;4.286;2023-06-22T00:51:53;4.68;;;1.70;;
22737;SDS011;11536;50.860;4.286;2023-06-22T00:54:19;4.68;;;1.52;;
22737;SDS011;11536;50.860;4.286;2023-06-22T00:56:55;5.50;;;1.70;;
22737;SDS011;11536;50.860;4.286;2023-06-22T00:59:22;7.07;;;1.83;;
22737;SDS011;11536;50.860;4.286;2023-06-22T01:01:48;4.72;;;1.23;;
22737;SDS011;11536;50.860;4.286;2023-06-22T01:04:15;3.00;;;1.23;;
22737;SDS011;11536;50.860;4.286;2023-06-22T01:07:01;4.40;;;1.65;;
22737;SDS011;11536;50.860;4.286;2023-06-22T01:09:49;3.85;;;1.55;;
22737;SDS011;11536;50.860;4.286;2023-06-22T01:12:34;3.80;;;1.33;;
22737;SDS011;11536;50.860;4.286;2023-06-22T01:15:10;6.45;;;1.80;;
22737;SDS011;11536;50.860;4.286;2023-06-22T01:17:40;4.53;;;1.48;;
22737;SDS011;11536;50.860;4.286;2023-06-22T01:20:08;4.75;;;1.70;;
22737;SDS011;11536;50.860;4.286;2023-06-22T01:22:41;4.05;;;1.70;;
22737;SDS011;11536;50.860;4.286;2023-06-22T01:25:20;6.03;;;1.77;;
22737;SDS011;11536;50.860;4.286;2023-06-22T01:30:27;4.70;;;1.90;;
22737;SDS011;11536;50.860;4.286;2023-06-22T01:32:54;3.78;;;1.50;;
22737;SDS011;11536;50.860;4.286;2023-06-22T01:35:23;3.75;;;1.60;;
22737;SDS011;11536;50.860;4.286;2023-06-22T01:37:50;3.72;;;1.48;;
22737;SDS011;11536;50.860;4.286;2023-06-22T01:40:15;5.25;;;1.80;;
22737;SDS011;11536;50.860;4.286;2023-06-22T01:42:41;5.72;;;2.03;;
22737;SDS011;11536;50.860;4.286;2023-06-22T01:45:09;4.70;;;1.80;;
22737;SDS011;11536;50.860;4.286;2023-06-22T01:47:36;5.25;;;1.60;;
22737;SDS011;11536;50.860;4.286;2023-06-22T01:50:02;4.80;;;1.55;;
22737;SDS011;11536;50.860;4.286;2023-06-22T01:52:28;4.40;;;1.77;;
22737;SDS011;11536;50.860;4.286;2023-06-22T01:54:54;4.80;;;1.63;;
22737;SDS011;11536;50.860;4.286;2023-06-22T01:57:20;4.13;;;1.48;;
22737;SDS011;11536;50.860;4.286;2023-06-22T02:00:04;3.83;;;1.42;;
22737;SDS011;11536;50.860;4.286;2023-06-22T02:05:21;5.15;;;1.45;;
22737;SDS011;11536;50.860;4.286;2023-06-22T02:07:55;3.42;;;1.38;;
22737;SDS011;11536;50.860;4.286;2023-06-22T02:10:27;5.53;;;1.50;;
22737;SDS011;11536;50.860;4.286;2023-06-22T02:12:53;5.70;;;1.83;;
22737;SDS011;11536;50.860;4.286;2023-06-22T02:15:21;5.35;;;1.73;;
22737;SDS011;11536;50.860;4.286;2023-06-22T02:17:47;4.30;;;2.00;;
22737;SDS011;11536;50.860;4.286;2023-06-22T02:20:13;6.78;;;2.20;;
22737;SDS011;11536;50.860;4.286;2023-06-22T02:22:39;5.53;;;2.30;;
22737;SDS011;11536;50.860;4.286;2023-06-22T02:25:05;4.88;;;1.92;;
22737;SDS011;11536;50.860;4.286;2023-06-22T02:27:31;5.35;;;2.28;;
22737;SDS011;11536;50.860;4.286;2023-06-22T02:29:57;5.25;;;2.15;;
22737;SDS011;11536;50.860;4.286;2023-06-22T02:32:23;5.13;;;1.85;;
22737;SDS011;11536;50.860;4.286;2023-06-22T02:34:48;5.40;;;1.90;;
22737;SDS011;11536;50.860;4.286;2023-06-22T02:37:14;4.15;;;2.00;;
22737;SDS011;11536;50.860;4.286;2023-06-22T02:39:40;5.30;;;1.77;;
22737;SDS011;11536;50.860;4.286;2023-06-22T02:42:06;6.50;;;2.58;;
22737;SDS011;11536;50.860;4.286;2023-06-22T02:44:31;5.03;;;1.92;;
22737;SDS011;11536;50.860;4.286;2023-06-22T02:46:57;5.38;;;2.25;;
22737;SDS011;11536;50.860;4.286;2023-06-22T02:49:23;7.82;;;2.10;;
22737;SDS011;11536;50.860;4.286;2023-06-22T02:51:49;5.07;;;2.22;;
22737;SDS011;11536;50.860;4.286;2023-06-22T02:54:15;4.15;;;1.88;;
22737;SDS011;11536;50.860;4.286;2023-06-22T02:56:41;5.78;;;1.95;;
22737;SDS011;11536;50.860;4.286;2023-06-22T02:59:10;5.60;;;2.10;;
22737;SDS011;11536;50.860;4.286;2023-06-22T03:01:36;4.53;;;2.03;;
22737;SDS011;11536;50.860;4.286;2023-06-22T03:04:08;6.82;;;2.28;;
22737;SDS011;11536;50.860;4.286;2023-06-22T03:06:34;6.80;;;2.42;;
22737;SDS011;11536;50.860;4.286;2023-06-22T03:09:01;6.22;;;2.20;;
22737;SDS011;11536;50.860;4.286;2023-06-22T03:11:29;5.47;;;2.35;;
22737;SDS011;11536;50.860;4.286;2023-06-22T03:13:58;6.05;;;2.30;;
22737;SDS011;11536;50.860;4.286;2023-06-22T03:16:24;6.68;;;2.50;;
22737;SDS011;11536;50.860;4.286;2023-06-22T03:18:50;4.85;;;2.33;;
22737;SDS011;11536;50.860;4.286;2023-06-22T03:21:16;5.97;;;2.42;;
22737;SDS011;11536;50.860;4.286;2023-06-22T03:23:42;7.45;;;2.70;;
22737;SDS011;11536;50.860;4.286;2023-06-22T03:26:08;6.05;;;2.42;;
22737;SDS011;11536;50.860;4.286;2023-06-22T03:28:34;4.93;;;2.15;;
22737;SDS011;11536;50.860;4.286;2023-06-22T03:31:00;7.35;;;2.90;;
22737;SDS011;11536;50.860;4.286;2023-06-22T03:33:25;5.75;;;2.60;;
22737;SDS011;11536;50.860;4.286;2023-06-22T03:35:51;5.40;;;2.50;;
22737;SDS011;11536;50.860;4.286;2023-06-22T03:38:17;6.05;;;2.60;;
22737;SDS011;11536;50.860;4.286;2023-06-22T03:40:43;7.13;;;2.70;;
22737;SDS011;11536;50.860;4.286;2023-06-22T03:43:08;7.93;;;2.47;;
22737;SDS011;11536;50.860;4.286;2023-06-22T03:45:34;7.03;;;2.95;;
22737;SDS011;11536;50.860;4.286;2023-06-22T03:48:00;6.85;;;2.85;;
22737;SDS011;11536;50.860;4.286;2023-06-22T03:50:26;7.13;;;3.20;;
22737;SDS011;11536;50.860;4.286;2023-06-22T03:52:52;9.90;;;3.53;;
22737;SDS011;11536;50.860;4.286;2023-06-22T03:55:19;9.60;;;3.22;;
22737;SDS011;11536;50.860;4.286;2023-06-22T03:57:45;8.65;;;3.53;;
22737;SDS011;11536;50.860;4.286;2023-06-22T04:00:11;9.98;;;3.45;;
22737;SDS011;11536;50.860;4.286;2023-06-22T04:02:37;8.93;;;3.30;;
22737;SDS011;11536;50.860;4.286;2023-06-22T04:05:03;8.80;;;3.70;;
22737;SDS011;11536;50.860;4.286;2023-06-22T04:07:29;8.82;;;3.55;;
22737;SDS011;11536;50.860;4.286;2023-06-22T04:09:54;9.10;;;4.07;;
22737;SDS011;11536;50.860;4.286;2023-06-22T04:12:20;6.47;;;3.33;;
22737;SDS011;11536;50.860;4.286;2023-06-22T04:14:46;6.55;;;3.28;;
22737;SDS011;11536;50.860;4.286;2023-06-22T04:17:11;8.90;;;4.05;;
22737;SDS011;11536;50.860;4.286;2023-06-22T04:19:39;7.03;;;3.33;;
22737;SDS011;11536;50.860;4.286;2023-06-22T04:22:05;8.73;;;3.45;;
22737;SDS011;11536;50.860;4.286;2023-06-22T04:24:32;7.20;;;3.17;;
22737;SDS011;11536;50.860;4.286;2023-06-22T04:26:58;8.13;;;3.40;;
22737;SDS011;11536;50.860;4.286;2023-06-22T04:29:25;7.70;;;3.05;;
22737;SDS011;11536;50.860;4.286;2023-06-22T04:31:53;5.75;;;2.70;;
22737;SDS011;11536;50.860;4.286;2023-06-22T04:34:21;8.38;;;3.03;;
22737;SDS011;11536;50.860;4.286;2023-06-22T04:36:46;7.80;;;3.38;;
22737;SDS011;11536;50.860;4.286;2023-06-22T04:39:12;7.45;;;3.30;;
22737;SDS011;11536;50.860;4.286;2023-06-22T04:41:38;6.50;;;3.47;;
22737;SDS011;11536;50.860;4.286;2023-06-22T04:46:36;7.90;;;4.20;;
22737;SDS011;11536;50.860;4.286;2023-06-22T04:49:09;12.10;;;5.30;;
22737;SDS011;11536;50.860;4.286;2023-06-22T04:51:41;9.90;;;4.55;;
22737;SDS011;11536;50.860;4.286;2023-06-22T04:54:07;9.68;;;4.47;;
22737;SDS011;11536;50.860;4.286;2023-06-22T04:56:34;11.48;;;5.88;;
22737;SDS011;11536;50.860;4.286;2023-06-22T04:59:00;9.55;;;5.20;;
22737;SDS011;11536;50.860;4.286;2023-06-22T05:01:26;9.57;;;5.10;;
22737;SDS011;11536;50.860;4.286;2023-06-22T05:03:52;12.13;;;6.30;;
22737;SDS011;11536;50.860;4.286;2023-06-22T05:06:22;11.43;;;5.22;;
22737;SDS011;11536;50.860;4.286;2023-06-22T05:08:54;13.35;;;5.75;;
22737;SDS011;11536;50.860;4.286;2023-06-22T05:11:24;11.80;;;5.33;;
22737;SDS011;11536;50.860;4.286;2023-06-22T05:13:50;9.65;;;5.22;;
22737;SDS011;11536;50.860;4.286;2023-06-22T05:16:16;12.93;;;5.38;;
22737;SDS011;11536;50.860;4.286;2023-06-22T05:18:42;12.45;;;5.57;;
22737;SDS011;11536;50.860;4.286;2023-06-22T05:21:08;9.80;;;5.32;;
22737;SDS011;11536;50.860;4.286;2023-06-22T05:23:37;12.60;;;5.70;;
22737;SDS011;11536;50.860;4.286;2023-06-22T05:26:02;11.77;;;6.18;;
22737;SDS011;11536;50.860;4.286;2023-06-22T05:28:28;10.07;;;5.18;;
22737;SDS011;11536;50.860;4.286;2023-06-22T05:30:54;11.00;;;5.47;;
22737;SDS011;11536;50.860;4.286;2023-06-22T05:33:19;11.80;;;5.95;;
22737;SDS011;11536;50.860;4.286;2023-06-22T05:35:46;11.88;;;5.90;;
22737;SDS011;11536;50.860;4.286;2023-06-22T05:38:12;13.85;;;6.13;;
22737;SDS011;11536;50.860;4.286;2023-06-22T05:40:37;11.95;;;6.28;;
22737;SDS011;11536;50.860;4.286;2023-06-22T05:43:03;12.93;;;6.22;;
22737;SDS011;11536;50.860;4.286;2023-06-22T05:45:29;17.33;;;6.18;;
22737;SDS011;11536;50.860;4.286;2023-06-22T05:47:55;11.80;;;6.07;;
22737;SDS011;11536;50.860;4.286;2023-06-22T05:50:21;10.30;;;4.97;;
22737;SDS011;11536;50.860;4.286;2023-06-22T05:52:46;12.10;;;6.25;;
22737;SDS011;11536;50.860;4.286;2023-06-22T05:55:12;12.77;;;6.50;;
22737;SDS011;11536;50.860;4.286;2023-06-22T05:57:37;11.88;;;6.18;;
22737;SDS011;11536;50.860;4.286;2023-06-22T06:00:03;11.07;;;6.18;;
22737;SDS011;11536;50.860;4.286;2023-06-22T06:02:33;13.40;;;6.70;;
22737;SDS011;11536;50.860;4.286;2023-06-22T06:04:59;13.95;;;6.70;;
22737;SDS011;11536;50.860;4.286;2023-06-22T06:07:24;14.35;;;6.63;;
22737;SDS011;11536;50.860;4.286;2023-06-22T06:09:50;14.10;;;7.03;;
22737;SDS011;11536;50.860;4.286;2023-06-22T06:12:16;16.92;;;7.10;;
22737;SDS011;11536;50.860;4.286;2023-06-22T06:14:41;16.60;;;7.10;;
22737;SDS011;11536;50.860;4.286;2023-06-22T06:17:07;13.77;;;7.30;;
22737;SDS011;11536;50.860;4.286;2023-06-22T06:19:32;18.88;;;7.25;;
22737;SDS011;11536;50.860;4.286;2023-06-22T06:21:58;13.15;;;7.40;;
22737;SDS011;11536;50.860;4.286;2023-06-22T06:24:24;12.63;;;7.05;;
22737;SDS011;11536;50.860;4.286;2023-06-22T06:26:49;17.08;;;7.22;;
22737;SDS011;11536;50.860;4.286;2023-06-22T06:29:15;13.27;;;7.63;;
22737;SDS011;11536;50.860;4.286;2023-06-22T06:31:41;13.93;;;7.18;;
22737;SDS011;11536;50.860;4.286;2023-06-22T06:34:07;13.48;;;6.90;;
22737;SDS011;11536;50.860;4.286;2023-06-22T06:36:32;13.38;;;6.63;;
22737;SDS011;11536;50.860;4.286;2023-06-22T06:38:58;14.48;;;6.95;;
22737;SDS011;11536;50.860;4.286;2023-06-22T06:41:23;12.35;;;6.88;;
22737;SDS011;11536;50.860;4.286;2023-06-22T06:43:49;12.68;;;6.38;;
22737;SDS011;11536;50.860;4.286;2023-06-22T06:46:15;13.80;;;6.35;;
22737;SDS011;11536;50.860;4.286;2023-06-22T06:48:40;12.68;;;6.35;;
22737;SDS011;11536;50.860;4.286;2023-06-22T06:51:06;12.65;;;6.40;;
22737;SDS011;11536;50.860;4.286;2023-06-22T06:53:34;11.73;;;5.70;;
22737;SDS011;11536;50.860;4.286;2023-06-22T06:56:00;14.30;;;6.53;;
22737;SDS011;11536;50.860;4.286;2023-06-22T06:58:26;11.82;;;7.15;;
22737;SDS011;11536;50.860;4.286;2023-06-22T07:00:51;15.38;;;7.57;;
22737;SDS011;11536;50.860;4.286;2023-06-22T07:03:17;16.30;;;7.65;;
22737;SDS011;11536;50.860;4.286;2023-06-22T07:05:43;14.95;;;7.28;;
22737;SDS011;11536;50.860;4.286;2023-06-22T07:08:08;13.77;;;8.23;;
22737;SDS011;11536;50.860;4.286;2023-06-22T07:10:34;12.13;;;6.72;;
22737;SDS011;11536;50.860;4.286;2023-06-22T07:12:59;15.25;;;8.15;;
22737;SDS011;11536;50.860;4.286;2023-06-22T07:15:25;13.75;;;7.43;;
22737;SDS011;11536;50.860;4.286;2023-06-22T07:17:50;15.05;;;7.65;;
22737;SDS011;11536;50.860;4.286;2023-06-22T07:20:16;13.00;;;7.97;;
22737;SDS011;11536;50.860;4.286;2023-06-22T07:22:42;17.13;;;8.27;;
22737;SDS011;11536;50.860;4.286;2023-06-22T07:25:09;16.70;;;9.05;;
22737;SDS011;11536;50.860;4.286;2023-06-22T07:27:39;16.65;;;8.63;;
22737;SDS011;11536;50.860;4.286;2023-06-22T07:30:08;16.63;;;9.32;;
22737;SDS011;11536;50.860;4.286;2023-06-22T07:32:34;15.95;;;9.10;;
22737;SDS011;11536;50.860;4.286;2023-06-22T07:35:00;14.32;;;8.30;;
22737;SDS011;11536;50.860;4.286;2023-06-22T07:37:27;13.38;;;7.85;;
22737;SDS011;11536;50.860;4.286;2023-06-22T07:39:53;14.20;;;8.10;;
22737;SDS011;11536;50.860;4.286;2023-06-22T07:42:23;14.43;;;8.20;;
22737;SDS011;11536;50.860;4.286;2023-06-22T07:44:50;14.80;;;8.82;;
22737;SDS011;11536;50.860;4.286;2023-06-22T07:47:18;14.80;;;8.45;;
22737;SDS011;11536;50.860;4.286;2023-06-22T07:49:44;14.00;;;8.40;;
22737;SDS011;11536;50.860;4.286;2023-06-22T07:52:12;18.33;;;8.70;;
22737;SDS011;11536;50.860;4.286;2023-06-22T07:54:38;15.45;;;9.10;;
22737;SDS011;11536;50.860;4.286;2023-06-22T07:57:04;14.73;;;8.68;;
22737;SDS011;11536;50.860;4.286;2023-06-22T07:59:29;13.02;;;7.72;;
22737;SDS011;11536;50.860;4.286;2023-06-22T08:01:55;13.75;;;8.65;;
22737;SDS011;11536;50.860;4.286;2023-06-22T08:04:21;15.27;;;8.60;;
22737;SDS011;11536;50.860;4.286;2023-06-22T08:06:46;16.17;;;7.82;;
22737;SDS011;11536;50.860;4.286;2023-06-22T08:09:12;13.55;;;7.50;;
22737;SDS011;11536;50.860;4.286;2023-06-22T08:11:37;13.40;;;8.48;;
22737;SDS011;11536;50.860;4.286;2023-06-22T08:14:03;14.23;;;8.57;;
22737;SDS011;11536;50.860;4.286;2023-06-22T08:16:29;14.65;;;7.88;;
22737;SDS011;11536;50.860;4.286;2023-06-22T08:18:54;12.85;;;7.65;;
22737;SDS011;11536;50.860;4.286;2023-06-22T08:21:20;12.98;;;8.07;;
22737;SDS011;11536;50.860;4.286;2023-06-22T08:23:45;16.35;;;7.90;;
22737;SDS011;11536;50.860;4.286;2023-06-22T08:26:11;15.52;;;8.45;;
22737;SDS011;11536;50.860;4.286;2023-06-22T08:28:37;17.33;;;8.38;;
22737;SDS011;11536;50.860;4.286;2023-06-22T08:31:02;13.98;;;8.10;;
22737;SDS011;11536;50.860;4.286;2023-06-22T08:33:29;12.00;;;8.05;;
22737;SDS011;11536;50.860;4.286;2023-06-22T08:35:55;16.50;;;8.85;;
22737;SDS011;11536;50.860;4.286;2023-06-22T08:38:21;15.48;;;8.30;;
22737;SDS011;11536;50.860;4.286;2023-06-22T08:40:47;13.57;;;8.10;;
22737;SDS011;11536;50.860;4.286;2023-06-22T08:43:13;14.38;;;8.23;;
22737;SDS011;11536;50.860;4.286;2023-06-22T08:45:39;13.93;;;8.45;;
22737;SDS011;11536;50.860;4.286;2023-06-22T08:48:05;12.90;;;8.27;;
22737;SDS011;11536;50.860;4.286;2023-06-22T08:50:30;16.52;;;9.18;;
22737;SDS011;11536;50.860;4.286;2023-06-22T08:52:56;15.82;;;9.30;;
22737;SDS011;11536;50.860;4.286;2023-06-22T08:55:22;14.60;;;8.82;;
22737;SDS011;11536;50.860;4.286;2023-06-22T08:57:47;15.63;;;9.20;;
22737;SDS011;11536;50.860;4.286;2023-06-22T09:00:13;15.95;;;9.38;;
22737;SDS011;11536;50.860;4.286;2023-06-22T09:02:44;14.18;;;9.18;;
22737;SDS011;11536;50.860;4.286;2023-06-22T09:05:10;15.10;;;9.27;;
22737;SDS011;11536;50.860;4.286;2023-06-22T09:07:36;16.17;;;9.35;;
22737;SDS011;11536;50.860;4.286;2023-06-22T09:10:01;12.63;;;8.02;;
22737;SDS011;11536;50.860;4.286;2023-06-22T09:12:29;11.95;;;8.38;;
22737;SDS011;11536;50.860;4.286;2023-06-22T09:14:55;13.38;;;8.82;;
22737;SDS011;11536;50.860;4.286;2023-06-22T09:17:21;14.50;;;9.30;;
22737;SDS011;11536;50.860;4.286;2023-06-22T09:19:48;16.88;;;9.43;;
22737;SDS011;11536;50.860;4.286;2023-06-22T09:22:13;15.38;;;8.98;;
22737;SDS011;11536;50.860;4.286;2023-06-22T09:24:39;13.68;;;8.95;;
22737;SDS011;11536;50.860;4.286;2023-06-22T09:27:05;16.00;;;8.80;;
22737;SDS011;11536;50.860;4.286;2023-06-22T09:29:31;13.48;;;8.18;;
22737;SDS011;11536;50.860;4.286;2023-06-22T09:31:58;13.60;;;8.65;;
22737;SDS011;11536;50.860;4.286;2023-06-22T09:34:24;14.50;;;8.93;;
22737;SDS011;11536;50.860;4.286;2023-06-22T09:36:50;14.50;;;8.25;;
22737;SDS011;11536;50.860;4.286;2023-06-22T09:39:17;13.95;;;9.02;;
22737;SDS011;11536;50.860;4.286;2023-06-22T09:41:43;14.98;;;9.00;;
22737;SDS011;11536;50.860;4.286;2023-06-22T09:44:09;15.75;;;8.45;;
22737;SDS011;11536;50.860;4.286;2023-06-22T09:46:34;12.13;;;7.88;;
22737;SDS011;11536;50.860;4.286;2023-06-22T09:49:00;14.27;;;8.40;;
22737;SDS011;11536;50.860;4.286;2023-06-22T09:51:25;13.50;;;7.65;;
22737;SDS011;11536;50.860;4.286;2023-06-22T09:53:51;16.77;;;8.65;;
22737;SDS011;11536;50.860;4.286;2023-06-22T09:56:18;14.57;;;7.97;;
22737;SDS011;11536;50.860;4.286;2023-06-22T09:58:45;15.90;;;9.02;;
22737;SDS011;11536;50.860;4.286;2023-06-22T10:01:11;20.63;;;10.00;;
22737;SDS011;11536;50.860;4.286;2023-06-22T10:03:39;15.73;;;9.65;;
22737;SDS011;11536;50.860;4.286;2023-06-22T10:06:06;18.85;;;10.13;;
22737;SDS011;11536;50.860;4.286;2023-06-22T10:08:32;15.98;;;9.32;;
22737;SDS011;11536;50.860;4.286;2023-06-22T10:10:58;13.90;;;8.60;;
22737;SDS011;11536;50.860;4.286;2023-06-22T10:13:24;16.65;;;10.60;;
22737;SDS011;11536;50.860;4.286;2023-06-22T10:15:49;17.45;;;9.82;;
22737;SDS011;11536;50.860;4.286;2023-06-22T10:18:17;17.88;;;9.30;;
22737;SDS011;11536;50.860;4.286;2023-06-22T10:20:43;17.67;;;10.07;;
22737;SDS011;11536;50.860;4.286;2023-06-22T10:23:10;16.65;;;9.68;;
22737;SDS011;11536;50.860;4.286;2023-06-22T10:25:35;14.52;;;9.52;;
22737;SDS011;11536;50.860;4.286;2023-06-22T10:28:01;16.13;;;10.02;;
22737;SDS011;11536;50.860;4.286;2023-06-22T10:30:26;18.75;;;10.15;;
22737;SDS011;11536;50.860;4.286;2023-06-22T10:32:53;17.25;;;10.00;;
22737;SDS011;11536;50.860;4.286;2023-06-22T10:35:19;19.25;;;10.05;;
22737;SDS011;11536;50.860;4.286;2023-06-22T10:37:45;13.13;;;8.93;;
22737;SDS011;11536;50.860;4.286;2023-06-22T10:40:12;14.65;;;8.98;;
22737;SDS011;11536;50.860;4.286;2023-06-22T10:42:40;15.25;;;9.70;;
22737;SDS011;11536;50.860;4.286;2023-06-22T10:45:06;16.00;;;9.65;;
22737;SDS011;11536;50.860;4.286;2023-06-22T10:47:32;14.75;;;9.50;;
22737;SDS011;11536;50.860;4.286;2023-06-22T10:49:57;14.38;;;9.63;;
22737;SDS011;11536;50.860;4.286;2023-06-22T10:52:23;18.10;;;10.10;;
22737;SDS011;11536;50.860;4.286;2023-06-22T10:54:48;18.23;;;10.15;;
22737;SDS011;11536;50.860;4.286;2023-06-22T10:57:14;15.68;;;10.25;;
22737;SDS011;11536;50.860;4.286;2023-06-22T10:59:40;14.70;;;9.85;;
22737;SDS011;11536;50.860;4.286;2023-06-22T11:02:05;16.60;;;10.80;;
22737;SDS011;11536;50.860;4.286;2023-06-22T11:04:31;17.00;;;10.15;;
22737;SDS011;11536;50.860;4.286;2023-06-22T11:06:57;17.90;;;10.55;;
22737;SDS011;11536;50.860;4.286;2023-06-22T11:09:23;17.17;;;11.27;;
22737;SDS011;11536;50.860;4.286;2023-06-22T11:11:49;17.27;;;9.80;;
22737;SDS011;11536;50.860;4.286;2023-06-22T11:14:18;16.77;;;10.43;;
22737;SDS011;11536;50.860;4.286;2023-06-22T11:16:44;17.67;;;10.50;;
22737;SDS011;11536;50.860;4.286;2023-06-22T11:19:09;18.90;;;11.32;;
22737;SDS011;11536;50.860;4.286;2023-06-22T11:21:35;18.65;;;11.52;;
22737;SDS011;11536;50.860;4.286;2023-06-22T11:24:00;19.23;;;12.35;;
22737;SDS011;11536;50.860;4.286;2023-06-22T11:26:26;19.20;;;12.38;;
22737;SDS011;11536;50.860;4.286;2023-06-22T11:28:54;20.85;;;12.38;;
22737;SDS011;11536;50.860;4.286;2023-06-22T11:31:20;19.65;;;12.23;;
22737;SDS011;11536;50.860;4.286;2023-06-22T11:33:46;18.67;;;12.23;;
22737;SDS011;11536;50.860;4.286;2023-06-22T11:36:13;21.85;;;12.15;;
22737;SDS011;11536;50.860;4.286;2023-06-22T11:38:39;19.77;;;10.38;;
22737;SDS011;11536;50.860;4.286;2023-06-22T11:41:05;16.52;;;9.55;;
22737;SDS011;11536;50.860;4.286;2023-06-22T11:43:31;16.30;;;10.43;;
22737;SDS011;11536;50.860;4.286;2023-06-22T11:45:57;17.92;;;10.02;;
22737;SDS011;11536;50.860;4.286;2023-06-22T11:48:26;14.60;;;9.32;;
22737;SDS011;11536;50.860;4.286;2023-06-22T11:50:51;16.00;;;9.63;;
22737;SDS011;11536;50.860;4.286;2023-06-22T11:53:17;15.25;;;9.25;;
22737;SDS011;11536;50.860;4.286;2023-06-22T11:55:43;15.50;;;10.27;;
22737;SDS011;11536;50.860;4.286;2023-06-22T11:58:09;15.52;;;9.80;;
22737;SDS011;11536;50.860;4.286;2023-06-22T12:00:36;16.45;;;10.25;;
22737;SDS011;11536;50.860;4.286;2023-06-22T12:03:02;16.60;;;10.50;;
22737;SDS011;11536;50.860;4.286;2023-06-22T12:05:29;16.38;;;10.35;;
22737;SDS011;11536;50.860;4.286;2023-06-22T12:07:55;17.35;;;10.75;;
22737;SDS011;11536;50.860;4.286;2023-06-22T12:10:21;19.65;;;11.73;;
22737;SDS011;11536;50.860;4.286;2023-06-22T12:12:48;18.70;;;11.48;;
22737;SDS011;11536;50.860;4.286;2023-06-22T12:15:13;18.35;;;11.13;;
22737;SDS011;11536;50.860;4.286;2023-06-22T12:17:42;16.92;;;10.95;;
22737;SDS011;11536;50.860;4.286;2023-06-22T12:20:07;15.98;;;10.43;;
22737;SDS011;11536;50.860;4.286;2023-06-22T12:22:34;17.77;;;11.45;;
22737;SDS011;11536;50.860;4.286;2023-06-22T12:25:00;18.33;;;11.50;;
22737;SDS011;11536;50.860;4.286;2023-06-22T12:27:26;18.38;;;11.40;;
22737;SDS011;11536;50.860;4.286;2023-06-22T12:29:52;20.98;;;11.32;;
22737;SDS011;11536;50.860;4.286;2023-06-22T12:32:18;16.38;;;10.27;;
22737;SDS011;11536;50.860;4.286;2023-06-22T12:34:44;17.67;;;10.63;;
22737;SDS011;11536;50.860;4.286;2023-06-22T12:37:10;19.20;;;10.75;;
22737;SDS011;11536;50.860;4.286;2023-06-22T12:39:36;19.20;;;11.88;;
22737;SDS011;11536;50.860;4.286;2023-06-22T12:42:02;18.73;;;10.52;;
22737;SDS011;11536;50.860;4.286;2023-06-22T12:44:27;17.08;;;11.18;;
22737;SDS011;11536;50.860;4.286;2023-06-22T12:46:53;19.48;;;12.68;;
22737;SDS011;11536;50.860;4.286;2023-06-22T12:49:19;19.27;;;11.85;;
22737;SDS011;11536;50.860;4.286;2023-06-22T12:51:44;20.30;;;12.55;;
22737;SDS011;11536;50.860;4.286;2023-06-22T12:54:10;21.52;;;13.23;;
22737;SDS011;11536;50.860;4.286;2023-06-22T12:56:36;19.80;;;12.77;;
22737;SDS011;11536;50.860;4.286;2023-06-22T12:59:03;21.75;;;13.82;;
22737;SDS011;11536;50.860;4.286;2023-06-22T13:01:29;21.17;;;12.88;;
22737;SDS011;11536;50.860;4.286;2023-06-22T13:03:56;20.13;;;12.75;;
22737;SDS011;11536;50.860;4.286;2023-06-22T13:06:23;23.60;;;13.55;;
22737;SDS011;11536;50.860;4.286;2023-06-22T13:08:48;22.88;;;12.65;;
22737;SDS011;11536;50.860;4.286;2023-06-22T13:11:14;21.08;;;12.85;;
22737;SDS011;11536;50.860;4.286;2023-06-22T13:13:39;21.27;;;13.55;;
22737;SDS011;11536;50.860;4.286;2023-06-22T13:16:05;21.73;;;13.15;;
22737;SDS011;11536;50.860;4.286;2023-06-22T13:18:31;22.80;;;12.77;;
22737;SDS011;11536;50.860;4.286;2023-06-22T13:20:58;23.58;;;13.20;;
22737;SDS011;11536;50.860;4.286;2023-06-22T13:23:25;19.95;;;12.00;;
22737;SDS011;11536;50.860;4.286;2023-06-22T13:25:50;19.67;;;12.32;;
22737;SDS011;11536;50.860;4.286;2023-06-22T13:28:16;24.58;;;13.10;;
22737;SDS011;11536;50.860;4.286;2023-06-22T13:30:42;19.65;;;12.88;;
22737;SDS011;11536;50.860;4.286;2023-06-22T13:33:10;19.55;;;11.65;;
22737;SDS011;11536;50.860;4.286;2023-06-22T13:35:36;19.08;;;11.50;;
22737;SDS011;11536;50.860;4.286;2023-06-22T13:38:02;17.58;;;10.75;;
22737;SDS011;11536;50.860;4.286;2023-06-22T13:40:28;19.83;;;11.68;;
22737;SDS011;11536;50.860;4.286;2023-06-22T13:42:54;17.27;;;10.73;;
22737;SDS011;11536;50.860;4.286;2023-06-22T13:45:20;18.42;;;12.00;;
22737;SDS011;11536;50.860;4.286;2023-06-22T13:47:46;18.67;;;11.40;;
22737;SDS011;11536;50.860;4.286;2023-06-22T13:50:12;19.92;;;11.88;;
22737;SDS011;11536;50.860;4.286;2023-06-22T13:52:38;19.70;;;11.73;;
22737;SDS011;11536;50.860;4.286;2023-06-22T13:55:04;21.88;;;12.13;;
22737;SDS011;11536;50.860;4.286;2023-06-22T13:57:31;18.73;;;11.75;;
22737;SDS011;11536;50.860;4.286;2023-06-22T13:59:57;21.83;;;12.18;;
22737;SDS011;11536;50.860;4.286;2023-06-22T14:02:23;16.65;;;11.63;;
22737;SDS011;11536;50.860;4.286;2023-06-22T14:04:48;19.48;;;11.93;;
22737;SDS011;11536;50.860;4.286;2023-06-22T14:07:14;19.08;;;12.18;;
22737;SDS011;11536;50.860;4.286;2023-06-22T14:09:40;18.42;;;11.90;;
22737;SDS011;11536;50.860;4.286;2023-06-22T14:12:06;19.15;;;12.07;;
22737;SDS011;11536;50.860;4.286;2023-06-22T14:14:32;18.00;;;11.57;;
22737;SDS011;11536;50.860;4.286;2023-06-22T14:16:59;18.88;;;12.00;;
22737;SDS011;11536;50.860;4.286;2023-06-22T14:19:25;20.92;;;13.45;;
22737;SDS011;11536;50.860;4.286;2023-06-22T14:21:50;21.20;;;12.70;;
22737;SDS011;11536;50.860;4.286;2023-06-22T14:24:16;19.05;;;11.68;;
22737;SDS011;11536;50.860;4.286;2023-06-22T14:26:42;16.70;;;11.77;;
22737;SDS011;11536;50.860;4.286;2023-06-22T14:29:07;19.23;;;12.18;;
22737;SDS011;11536;50.860;4.286;2023-06-22T14:31:33;19.35;;;12.32;;
22737;SDS011;11536;50.860;4.286;2023-06-22T14:33:58;20.65;;;12.98;;
22737;SDS011;11536;50.860;4.286;2023-06-22T14:36:25;18.63;;;12.77;;
22737;SDS011;11536;50.860;4.286;2023-06-22T14:38:51;20.65;;;14.10;;